This is the latest recevied weather packets stored in our database for station/object K5IDL. If no packets are shown the sender has not sent any weather packets the latest 10 day(s).
| Time | Temp. | Humidity | Pressure | Rain* | Wind** | Luminosity | Snow |
|---|---|---|---|---|---|---|---|
| 1777768652 | 23.33° C | 39% | 1019.8 hPa | 0 mm | - | 12 W/m² | - |
| 1777766803 | 24.44° C | 36% | 1019.9 hPa | 0 mm | - | 19 W/m² | - |
| 1777765655 | 25° C | 35% | 1019.8 hPa | 0 mm | - | 69 W/m² | - |
| 1777757215 | 25.56° C | 33% | 1020.8 hPa | 0 mm | - | 332 W/m² | - |
| 1777750004 | 25° C | 32% | 1022.1 hPa | 0 mm | - | 469 W/m² | - |
| 1777748812 | 25° C | 33% | 1022.4 hPa | 0 mm | - | 722 W/m² | - |
| 1777744602 | 24.44° C | 32% | 1023 hPa | 0 mm | - | 732 W/m² | - |
| 1777742859 | 24.44° C | 32% | 1023.4 hPa | 0 mm | - | 712 W/m² | - |
| 1777739860 | 24.44° C | 36% | 1023.5 hPa | 0 mm | - | 644 W/m² | - |
| 1777736223 | 23.33° C | 38% | 1023.3 hPa | 0 mm | - | 512 W/m² | - |
| 1777735669 | 23.33° C | 38% | 1023.3 hPa | 0 mm | - | 484 W/m² | - |
| 1777732355 | 22.22° C | 41% | 1023.1 hPa | 0 mm | - | 320 W/m² | - |
| 1777731761 | 22.22° C | 43% | 1023.1 hPa | 0 mm | - | 292 W/m² | - |
| 1777730486 | 21.67° C | 44% | 1023 hPa | 0 mm | - | 232 W/m² | - |
| 1777728144 | 18.33° C | 56% | 1022.7 hPa | 0 mm | - | 129 W/m² | - |
| 1777719702 | 11.11° C | 91% | 1020.9 hPa | 0 mm | - | 0 W/m² | - |
| 1777719128 | 11.11° C | 91% | 1020.6 hPa | 0 mm | - | 0 W/m² | - |
| 1777717342 | 11.11° C | 90% | 1020.1 hPa | 0 mm | - | 0 W/m² | - |
| 1777704710 | 13.33° C | 80% | 1020.2 hPa | 0 mm | - | 0 W/m² | - |
| 1777699863 | 13.89° C | 81% | 1020.2 hPa | 0 mm | - | 0 W/m² | - |
| 1777695142 | 14.44° C | 80% | 1019.8 hPa | 0 mm | - | 0 W/m² | - |
| 1777693293 | 15.56° C | 75% | 1020 hPa | 0 mm | - | 0 W/m² | - |
| 1777688570 | 16.67° C | 68% | 1019.6 hPa | 0 mm | - | 0 W/m² | - |
| 1777687932 | 16.67° C | 68% | 1019.4 hPa | 0 mm | - | 0 W/m² | - |
| 1777686720 | 16.67° C | 66% | 1019 hPa | 0 mm | - | 0 W/m² | - |
* Rain latest hour (hover to see other rain measurements)
** Current wind speed in m/s (hover to see current wind gust speed)